createdAt,value
2022-11-02T00:02:59.852Z,51.95
2022-11-02T00:06:03.963Z,52.03
2022-11-02T00:09:11.164Z,51.71
2022-11-02T00:12:15.292Z,51.54
2022-11-02T00:15:19.865Z,51.42
2022-11-02T00:18:24.454Z,51.69
2022-11-02T00:21:30.024Z,51.46
2022-11-02T00:24:35.725Z,51.48
2022-11-02T00:27:40.566Z,52.44
2022-11-02T00:30:45.608Z,53.31
2022-11-02T00:33:49.703Z,53.17
2022-11-02T00:36:55.678Z,52.82
2022-11-02T00:40:01.592Z,52.78
2022-11-02T00:43:06.446Z,52.95
2022-11-02T00:46:10.753Z,52.79
2022-11-02T00:49:15.389Z,53.52
2022-11-02T00:52:19.425Z,52.68
2022-11-02T00:55:28.586Z,52.16
2022-11-02T00:58:37.724Z,52.75
2022-11-02T01:01:47.528Z,53.71
2022-11-02T01:04:51.703Z,54.45
2022-11-02T01:07:57.333Z,53.41
2022-11-02T01:11:15.324Z,53.81
2022-11-02T01:14:19.374Z,54.01
2022-11-02T01:17:23.536Z,54.07
2022-11-02T01:20:27.454Z,53.26
2022-11-02T01:23:34.365Z,53.14
2022-11-02T01:26:39.852Z,53.69
2022-11-02T01:29:44.024Z,55.10
2022-11-02T01:32:48.144Z,54.73
2022-11-02T01:35:52.298Z,53.63
2022-11-02T01:38:57.304Z,53.16
2022-11-02T01:42:02.974Z,53.92
2022-11-02T01:45:08.113Z,55.57
2022-11-02T01:48:12.394Z,54.89
2022-11-02T01:51:21.223Z,56.43
2022-11-02T01:54:28.463Z,55.46
2022-11-02T01:57:35.186Z,56.20
2022-11-02T02:00:39.686Z,55.31
2022-11-02T02:03:45.164Z,54.52
2022-11-02T02:06:51.323Z,54.39
2022-11-02T02:09:57.525Z,55.25
2022-11-02T02:13:04.945Z,55.02
2022-11-02T02:16:17.584Z,54.22
2022-11-02T02:19:34.476Z,54.08
2022-11-02T02:23:03.705Z,53.55
2022-11-02T02:26:43.907Z,53.33
2022-11-02T02:30:06.353Z,53.07
2022-11-02T02:33:14.873Z,52.73
2022-11-02T02:36:26.213Z,52.79
2022-11-02T02:39:36.404Z,52.83
2022-11-02T02:42:45.924Z,53.04
2022-11-02T02:45:55.984Z,52.89
2022-11-02T02:49:01.174Z,53.03
2022-11-02T02:52:06.044Z,53.95
2022-11-02T02:55:17.883Z,53.41
2022-11-02T02:58:26.033Z,52.73
2022-11-02T03:01:32.663Z,52.94
2022-11-02T03:04:38.783Z,52.77
2022-11-02T03:07:50.324Z,52.85
2022-11-02T03:11:00.434Z,53.13
2022-11-02T03:14:16.706Z,52.80
2022-11-02T03:17:30.532Z,53.58
2022-11-02T03:20:45.763Z,53.24
2022-11-02T03:23:56.747Z,53.30
2022-11-02T03:27:12.331Z,53.41
2022-11-02T03:30:19.695Z,53.20
2022-11-02T03:33:35.572Z,53.50
2022-11-02T03:36:47.324Z,53.91
2022-11-02T03:39:55.886Z,54.55
2022-11-02T03:43:02.393Z,54.04
2022-11-02T03:46:10.187Z,53.72
2022-11-02T03:49:20.255Z,53.73
2022-11-02T03:52:31.051Z,54.06
2022-11-02T03:55:39.013Z,55.19
2022-11-02T03:58:43.294Z,55.68
2022-11-02T04:01:51.028Z,54.45
2022-11-02T04:04:58.604Z,54.25
2022-11-02T04:08:20.673Z,53.96
2022-11-02T04:11:44.046Z,54.58
2022-11-02T04:14:51.103Z,53.56
2022-11-02T04:18:13.055Z,53.18
2022-11-02T04:21:19.284Z,53.35
2022-11-02T04:24:40.414Z,54.22
2022-11-02T04:27:45.184Z,54.01
2022-11-02T04:30:49.736Z,53.72
2022-11-02T04:33:55.953Z,54.00
2022-11-02T04:37:01.663Z,54.46
2022-11-02T04:40:05.423Z,53.98
2022-11-02T04:43:10.174Z,53.59
2022-11-02T04:46:14.974Z,54.32
2022-11-02T04:49:20.333Z,54.20
2022-11-02T04:52:26.013Z,54.53
2022-11-02T04:55:31.334Z,54.49
2022-11-02T04:58:36.721Z,55.01
2022-11-02T05:01:42.139Z,54.42
2022-11-02T05:04:46.855Z,54.55
2022-11-02T05:07:53.193Z,54.55
2022-11-02T05:10:58.484Z,55.29
2022-11-02T05:14:03.893Z,55.20
2022-11-02T05:17:08.913Z,54.61
2022-11-02T05:20:15.125Z,54.50
2022-11-02T05:23:22.653Z,54.87
2022-11-02T05:26:26.934Z,55.13
2022-11-02T05:29:31.223Z,56.99
2022-11-02T05:32:35.714Z,58.75
2022-11-02T05:35:39.934Z,57.67
2022-11-02T05:38:46.296Z,56.35
2022-11-02T05:41:50.874Z,56.64
2022-11-02T05:44:55.114Z,56.17
2022-11-02T05:48:02.804Z,55.23
2022-11-02T05:51:07.154Z,54.97
2022-11-02T05:54:12.855Z,53.54
2022-11-02T05:57:18.816Z,53.51
2022-11-02T06:00:24.504Z,53.08
2022-11-02T06:03:28.973Z,52.12
2022-11-02T06:06:34.313Z,51.97
2022-11-02T06:09:40.133Z,51.64
2022-11-02T06:12:44.743Z,52.25
2022-11-02T06:15:49.003Z,51.02
2022-11-02T06:18:53.455Z,50.67
2022-11-02T06:21:58.314Z,49.86
2022-11-02T06:25:03.893Z,49.79
2022-11-02T06:28:08.164Z,49.75
2022-11-02T06:31:12.415Z,49.66
2022-11-02T06:34:16.715Z,49.57
2022-11-02T06:37:20.891Z,48.48
2022-11-02T06:40:26.842Z,48.73
2022-11-02T06:43:31.436Z,47.91
2022-11-02T06:46:35.555Z,47.60
2022-11-02T06:49:39.935Z,46.86
2022-11-02T06:52:45.753Z,46.87
2022-11-02T06:55:55.508Z,46.55
2022-11-02T06:58:59.903Z,46.29
2022-11-02T07:02:04.283Z,45.99
2022-11-02T07:05:09.733Z,45.26
2022-11-02T07:08:13.796Z,44.71
2022-11-02T07:11:19.702Z,44.00
2022-11-02T07:14:23.953Z,43.25
2022-11-02T07:17:32.051Z,43.65
2022-11-02T07:20:37.174Z,42.64
2022-11-02T07:23:41.513Z,42.58
2022-11-02T07:26:50.545Z,43.28
2022-11-02T07:29:54.734Z,42.49
2022-11-02T07:32:59.048Z,42.55
2022-11-02T07:36:06.544Z,41.49
2022-11-02T07:39:11.174Z,41.46
2022-11-02T07:42:17.073Z,40.67
2022-11-02T07:45:23.113Z,39.88
2022-11-02T07:48:27.393Z,39.66
2022-11-02T07:51:31.599Z,38.94
2022-11-02T07:54:38.520Z,38.95
2022-11-02T07:57:53.981Z,39.03
2022-11-02T08:01:00.324Z,38.95
2022-11-02T08:04:04.586Z,38.37
2022-11-02T08:07:10.126Z,37.66
2022-11-02T08:10:14.583Z,37.40
2022-11-02T08:13:22.616Z,37.21
2022-11-02T08:16:27.084Z,38.78
2022-11-02T08:19:34.153Z,37.91
2022-11-02T08:22:39.510Z,36.52
2022-11-02T08:25:45.947Z,36.76
2022-11-02T08:28:51.705Z,36.16
2022-11-02T08:31:55.804Z,35.49
2022-11-02T08:35:00.109Z,35.46
2022-11-02T08:38:04.510Z,35.18
2022-11-02T08:41:08.914Z,35.31
2022-11-02T08:44:14.594Z,35.38
2022-11-02T08:47:19.255Z,35.22
2022-11-02T08:50:24.212Z,34.30
2022-11-02T08:53:28.776Z,34.39
2022-11-02T08:56:32.921Z,34.67
2022-11-02T08:59:38.656Z,34.00
2022-11-02T09:02:43.016Z,33.99
2022-11-02T09:05:49.013Z,33.37
2022-11-02T09:08:56.230Z,32.61
2022-11-02T09:12:02.236Z,32.20
2022-11-02T09:15:09.105Z,32.42
2022-11-02T09:18:13.366Z,32.41
2022-11-02T09:21:17.574Z,32.06
2022-11-02T09:24:21.853Z,32.74
2022-11-02T09:27:26.224Z,32.54
2022-11-02T09:30:31.803Z,31.52
2022-11-02T09:33:36.644Z,31.10
2022-11-02T09:36:40.764Z,31.54
2022-11-02T09:39:45.224Z,31.64
2022-11-02T09:42:59.304Z,31.58
2022-11-02T09:46:08.334Z,31.98
2022-11-02T09:49:17.013Z,31.33
2022-11-02T09:52:29.542Z,30.37
2022-11-02T09:55:37.186Z,29.53
2022-11-02T09:58:42.764Z,28.95
2022-11-02T10:02:01.515Z,29.72
2022-11-02T10:05:23.893Z,29.44
2022-11-02T10:08:40.394Z,28.58
2022-11-02T10:11:52.873Z,28.23
2022-11-02T10:15:04.164Z,28.07
2022-11-02T10:18:16.683Z,27.83
2022-11-02T10:21:23.445Z,28.25
2022-11-02T10:24:33.765Z,27.52
2022-11-02T10:27:41.136Z,27.96
2022-11-02T10:30:46.605Z,27.31
2022-11-02T10:33:54.128Z,27.52
2022-11-02T10:37:25.385Z,27.46
2022-11-02T10:40:47.895Z,26.97
2022-11-02T10:44:13.064Z,26.20
2022-11-02T10:47:20.535Z,27.63
2022-11-02T10:50:43.714Z,27.15
2022-11-02T10:53:50.463Z,25.19
2022-11-02T10:56:57.905Z,24.20
2022-11-02T11:00:24.790Z,24.18
2022-11-02T11:03:29.321Z,23.97
2022-11-02T11:06:39.314Z,23.88
2022-11-02T11:09:51.346Z,24.09
2022-11-02T11:12:57.921Z,23.42
2022-11-02T11:16:03.612Z,23.12
2022-11-02T11:22:46.504Z,23.57
2022-11-02T11:25:59.115Z,22.92
2022-11-02T11:29:03.375Z,23.23
2022-11-02T11:32:16.555Z,23.42
2022-11-02T11:35:21.904Z,23.12
2022-11-02T11:38:28.727Z,23.00
2022-11-02T11:41:35.126Z,22.83
2022-11-02T11:44:39.505Z,22.88
2022-11-02T11:47:44.714Z,22.81
2022-11-02T11:50:49.611Z,22.99
2022-11-02T11:54:22.648Z,22.88
2022-11-02T11:57:31.846Z,23.07
2022-11-02T12:00:36.129Z,23.47
2022-11-02T12:03:57.463Z,23.15
2022-11-02T12:07:20.634Z,23.41
2022-11-02T12:10:41.784Z,23.56
2022-11-02T12:13:59.684Z,23.17
2022-11-02T12:17:26.803Z,22.91
2022-11-02T12:20:47.675Z,21.71
2022-11-02T12:24:04.423Z,22.05
2022-11-02T12:27:26.174Z,21.41
2022-11-02T12:30:37.694Z,20.56
2022-11-02T12:33:58.473Z,20.40
2022-11-02T12:37:40.385Z,20.43
2022-11-02T12:40:56.664Z,20.19
2022-11-02T12:44:09.744Z,20.30
2022-11-02T12:47:28.174Z,20.42
2022-11-02T12:50:47.021Z,19.21
2022-11-02T12:53:56.395Z,18.47
2022-11-02T12:57:00.849Z,18.01
2022-11-02T13:00:09.724Z,17.65
2022-11-02T13:03:28.533Z,17.52
2022-11-02T13:06:38.794Z,18.22
2022-11-02T13:09:51.662Z,17.97
2022-11-02T13:13:00.168Z,18.21
2022-11-02T13:16:08.212Z,18.22
2022-11-02T13:19:20.243Z,18.57
2022-11-02T13:22:31.081Z,18.14
2022-11-02T13:25:38.253Z,18.37
2022-11-02T13:28:46.474Z,18.92
2022-11-02T13:31:57.174Z,19.22
2022-11-02T13:35:06.913Z,19.36
2022-11-02T13:38:26.015Z,19.59
2022-11-02T13:42:02.795Z,19.65
2022-11-02T13:45:29.294Z,20.10
2022-11-02T13:48:55.914Z,19.48
2022-11-02T13:52:04.519Z,20.21
2022-11-02T13:55:16.332Z,19.83
2022-11-02T13:58:26.383Z,19.93
2022-11-02T14:01:33.405Z,20.26
2022-11-02T14:04:43.123Z,20.10
2022-11-02T14:07:47.457Z,20.61
2022-11-02T14:11:25.173Z,20.67
2022-11-02T14:14:29.383Z,20.72
2022-11-02T14:18:04.633Z,21.35
2022-11-02T14:21:45.483Z,21.62
2022-11-02T14:25:15.052Z,21.62
2022-11-02T14:28:45.570Z,21.98
2022-11-02T14:32:02.643Z,22.52
2022-11-02T14:35:29.103Z,22.26
2022-11-02T14:38:53.604Z,22.50
2022-11-02T14:42:17.943Z,22.58
2022-11-02T14:45:46.723Z,22.81
2022-11-02T14:48:54.135Z,23.07
2022-11-02T14:52:05.994Z,23.07
2022-11-02T14:55:25.566Z,23.30
2022-11-02T14:58:37.183Z,23.25
2022-11-02T15:01:53.754Z,23.30
2022-11-02T15:05:00.801Z,23.54
2022-11-02T15:08:09.308Z,23.66
2022-11-02T15:11:50.035Z,23.73
2022-11-02T15:14:58.108Z,23.76
2022-11-02T15:18:22.865Z,23.90
2022-11-02T15:21:28.830Z,24.23
2022-11-02T15:24:35.381Z,24.40
2022-11-02T15:27:42.339Z,24.60
2022-11-02T15:30:51.541Z,24.81
2022-11-02T15:33:58.369Z,25.38
2022-11-02T15:37:03.609Z,25.18
2022-11-02T15:40:20.809Z,25.42
2022-11-02T15:43:58.066Z,26.00
2022-11-02T15:47:14.594Z,26.10
2022-11-02T15:50:48.040Z,26.58
2022-11-02T15:54:04.599Z,26.40
2022-11-02T15:57:18.609Z,26.61
2022-11-02T16:00:30.482Z,27.10
2022-11-02T16:03:36.847Z,26.86
2022-11-02T16:06:43.340Z,27.09
2022-11-02T16:09:48.410Z,27.09
2022-11-02T16:13:00.869Z,27.49
2022-11-02T16:16:08.469Z,27.64
2022-11-02T16:19:21.489Z,27.83
2022-11-02T16:22:28.174Z,28.33
2022-11-02T16:25:39.683Z,28.73
2022-11-02T16:28:49.289Z,28.52
2022-11-02T16:31:53.792Z,28.45
2022-11-02T16:35:02.597Z,28.80
2022-11-02T16:38:07.455Z,29.35
2022-11-02T16:41:12.218Z,29.94
2022-11-02T16:44:22.380Z,30.55
2022-11-02T16:47:39.991Z,30.16
2022-11-02T16:51:02.764Z,30.23
2022-11-02T16:54:31.140Z,30.39
2022-11-02T16:57:46.188Z,29.93
2022-11-02T17:01:03.656Z,29.60
2022-11-02T17:04:22.200Z,29.21
2022-11-02T17:07:32.071Z,29.06
2022-11-02T17:10:38.049Z,29.66
2022-11-02T17:13:50.639Z,28.88
2022-11-02T17:17:07.119Z,29.41
2022-11-02T17:20:24.651Z,29.70
2022-11-02T17:23:37.846Z,29.70
2022-11-02T17:26:42.368Z,29.65
2022-11-02T17:29:46.611Z,29.90
2022-11-02T17:32:51.219Z,29.46
2022-11-02T17:35:57.868Z,29.61
2022-11-02T17:39:05.914Z,30.21
2022-11-02T17:42:33.974Z,29.96
2022-11-02T17:45:39.433Z,30.03
2022-11-02T17:48:43.790Z,29.82
2022-11-02T17:51:48.835Z,30.24
2022-11-02T17:54:54.684Z,30.47
2022-11-02T17:57:59.774Z,30.69
2022-11-02T18:01:05.889Z,30.84
2022-11-02T18:04:10.143Z,30.47
2022-11-02T18:07:14.415Z,30.12
2022-11-02T18:10:21.023Z,29.96
2022-11-02T18:13:26.214Z,29.85
2022-11-02T18:16:30.904Z,30.47
2022-11-02T18:19:35.415Z,30.39
2022-11-02T18:22:40.907Z,30.39
2022-11-02T18:25:46.733Z,30.39
2022-11-02T18:28:51.055Z,30.15
2022-11-02T18:31:55.183Z,30.55
2022-11-02T18:34:59.464Z,29.98
2022-11-02T18:38:04.101Z,30.33
2022-11-02T18:41:25.371Z,30.35
2022-11-02T18:44:29.663Z,30.68
2022-11-02T18:47:33.993Z,30.76
2022-11-02T18:50:38.083Z,30.90
2022-11-02T18:53:42.463Z,31.18
2022-11-02T18:56:48.483Z,31.59
2022-11-02T18:59:52.673Z,31.18
2022-11-02T19:02:56.964Z,31.68
2022-11-02T19:06:18.373Z,31.43
2022-11-02T19:09:24.984Z,31.65
2022-11-02T19:12:32.022Z,31.77
2022-11-02T19:15:42.257Z,31.70
2022-11-02T19:18:47.042Z,31.86
2022-11-02T19:21:51.371Z,31.64
2022-11-02T19:24:55.817Z,31.32
2022-11-02T19:28:01.552Z,31.18
2022-11-02T19:31:06.912Z,31.47
2022-11-02T19:34:11.474Z,31.49
2022-11-02T19:37:16.430Z,31.31
2022-11-02T19:40:20.623Z,31.61
2022-11-02T19:43:26.684Z,31.69
2022-11-02T19:46:31.225Z,31.69
2022-11-02T19:49:35.323Z,31.58
2022-11-02T19:52:39.984Z,31.67
2022-11-02T19:55:53.326Z,31.97
2022-11-02T19:58:59.883Z,31.93
2022-11-02T20:02:04.363Z,32.07
2022-11-02T20:05:09.665Z,32.01
2022-11-02T20:08:14.022Z,31.91
2022-11-02T20:11:19.181Z,32.32
2022-11-02T20:14:24.902Z,32.31
2022-11-02T20:17:38.074Z,32.58
2022-11-02T20:20:54.001Z,32.57
2022-11-02T20:23:59.132Z,32.30
2022-11-02T20:27:06.063Z,32.56
2022-11-02T20:30:15.795Z,32.71
2022-11-02T20:33:20.124Z,33.02
2022-11-02T20:36:24.367Z,33.18
2022-11-02T20:39:28.679Z,33.34
2022-11-02T20:42:33.498Z,33.46
2022-11-02T20:45:39.418Z,33.38
2022-11-02T20:48:44.190Z,33.45
2022-11-02T20:51:48.377Z,33.02
2022-11-02T20:54:52.838Z,32.84
2022-11-02T20:58:01.821Z,33.23
2022-11-02T21:01:07.981Z,33.14
2022-11-02T21:04:18.511Z,33.49
2022-11-02T21:07:24.480Z,33.57
2022-11-02T21:10:28.791Z,33.28
2022-11-02T21:13:50.181Z,33.62
2022-11-02T21:16:56.581Z,33.90
2022-11-02T21:20:28.385Z,33.81
2022-11-02T21:23:25.212Z,33.83
2022-11-02T21:26:37.204Z,33.89
2022-11-02T21:29:41.440Z,34.08
2022-11-02T21:32:47.580Z,33.98
2022-11-02T21:35:55.763Z,34.20
2022-11-02T21:39:00.304Z,34.09
2022-11-02T21:42:05.770Z,34.20
2022-11-02T21:45:15.165Z,34.08
2022-11-02T21:48:26.172Z,34.33
2022-11-02T21:51:35.202Z,34.65
2022-11-02T21:54:43.540Z,34.45
2022-11-02T21:57:50.571Z,34.68
2022-11-02T22:01:19.753Z,34.64
2022-11-02T22:04:29.171Z,34.49
2022-11-02T22:07:53.390Z,34.39
2022-11-02T22:10:59.243Z,34.87
2022-11-02T22:14:05.750Z,34.69
2022-11-02T22:17:21.820Z,35.02
2022-11-02T22:20:37.380Z,35.15
2022-11-02T22:23:43.890Z,35.25
2022-11-02T22:26:50.361Z,35.27
2022-11-02T22:29:54.570Z,35.46
2022-11-02T22:32:58.891Z,35.34
2022-11-02T22:36:07.430Z,35.25
2022-11-02T22:39:15.629Z,35.34
2022-11-02T22:42:21.871Z,35.01
2022-11-02T22:45:29.091Z,35.33
2022-11-02T22:48:34.591Z,35.04
2022-11-02T22:51:41.750Z,34.91
2022-11-02T22:54:48.050Z,35.25
2022-11-02T22:57:59.904Z,35.54
2022-11-02T23:01:05.204Z,35.17
2022-11-02T23:04:11.909Z,35.38
2022-11-02T23:07:17.785Z,35.11
2022-11-02T23:10:35.716Z,35.19
2022-11-02T23:13:42.687Z,35.10
2022-11-02T23:16:48.749Z,35.39
2022-11-02T23:19:53.166Z,35.53
2022-11-02T23:23:19.354Z,35.28
2022-11-02T23:26:28.515Z,35.60
2022-11-02T23:29:50.025Z,35.44
2022-11-02T23:32:54.255Z,35.79
2022-11-02T23:36:12.843Z,35.55
2022-11-02T23:39:35.915Z,35.94
2022-11-02T23:42:40.435Z,35.71
2022-11-02T23:45:44.834Z,36.07
2022-11-02T23:48:52.748Z,35.87
2022-11-02T23:52:15.305Z,35.49
2022-11-02T23:55:38.154Z,35.78
2022-11-02T23:58:42.505Z,35.77
